createdAt,value
2022-09-22T00:01:36.221Z,26.50
2022-09-22T00:04:07.599Z,26.50
2022-09-22T00:06:38.815Z,26.50
2022-09-22T00:09:13.015Z,26.50
2022-09-22T00:11:44.971Z,26.40
2022-09-22T00:14:15.719Z,26.50
2022-09-22T00:16:46.151Z,26.50
2022-09-22T00:19:18.013Z,26.50
2022-09-22T00:21:46.550Z,26.50
2022-09-22T00:24:17.623Z,26.40
2022-09-22T00:26:46.192Z,26.40
2022-09-22T00:29:17.077Z,26.40
2022-09-22T00:31:46.012Z,26.40
2022-09-22T00:34:18.080Z,26.40
2022-09-22T00:36:46.786Z,26.40
2022-09-22T00:39:18.483Z,26.40
2022-09-22T00:41:49.840Z,26.40
2022-09-22T00:44:34.136Z,26.30
2022-09-22T00:47:13.452Z,26.30
2022-09-22T00:49:50.261Z,26.30
2022-09-22T00:52:25.404Z,26.30
2022-09-22T00:54:59.720Z,26.30
2022-09-22T00:57:32.676Z,26.30
2022-09-22T01:00:04.601Z,26.30
2022-09-22T01:02:32.615Z,26.30
2022-09-22T01:05:00.481Z,26.20
2022-09-22T01:07:32.122Z,26.20
2022-09-22T01:10:01.343Z,26.20
2022-09-22T01:12:32.072Z,26.20
2022-09-22T01:15:32.427Z,26.20
2022-09-22T01:18:22.535Z,26.20
2022-09-22T01:21:23.982Z,26.20
2022-09-22T01:24:47.331Z,26.20
2022-09-22T01:27:38.075Z,26.20
2022-09-22T01:30:19.439Z,26.20
2022-09-22T01:33:22.464Z,26.10
2022-09-22T01:36:09.518Z,26.10
2022-09-22T01:38:46.505Z,26.10
2022-09-22T01:41:25.067Z,26.10
2022-09-22T01:44:00.877Z,26.10
2022-09-22T01:46:36.448Z,26.10
2022-09-22T01:49:09.626Z,26.10
2022-09-22T01:51:45.383Z,26.10
2022-09-22T01:54:19.800Z,26.10
2022-09-22T01:56:54.080Z,26.10
2022-09-22T01:59:26.931Z,26.10
2022-09-22T02:02:02.812Z,26.00
2022-09-22T02:04:38.087Z,26.00
2022-09-22T02:07:13.325Z,26.00
2022-09-22T02:09:43.347Z,26.00
2022-09-22T02:12:11.104Z,26.00
2022-09-22T02:14:38.815Z,26.00
2022-09-22T02:17:07.892Z,26.00
2022-09-22T02:19:39.918Z,26.00
2022-09-22T02:22:10.002Z,26.00
2022-09-22T02:24:40.751Z,26.00
2022-09-22T02:27:14.205Z,26.00
2022-09-22T02:29:47.636Z,26.00
2022-09-22T02:32:18.610Z,25.90
2022-09-22T02:34:47.744Z,26.00
2022-09-22T02:37:23.288Z,26.00
2022-09-22T02:40:06.940Z,25.90
2022-09-22T02:42:42.636Z,25.90
2022-09-22T02:45:18.249Z,25.90
2022-09-22T02:47:53.390Z,25.90
2022-09-22T02:50:24.277Z,25.90
2022-09-22T02:52:53.999Z,25.90
2022-09-22T02:55:21.701Z,25.90
2022-09-22T02:57:49.364Z,25.90
2022-09-22T03:00:17.118Z,25.90
2022-09-22T03:02:44.840Z,25.80
2022-09-22T03:05:13.949Z,25.80
2022-09-22T03:07:41.726Z,25.80
2022-09-22T03:10:11.086Z,25.80
2022-09-22T03:13:02.462Z,25.80
2022-09-22T03:15:30.510Z,25.80
2022-09-22T03:17:58.452Z,25.80
2022-09-22T03:20:27.587Z,25.80
2022-09-22T03:22:55.273Z,25.80
2022-09-22T03:25:23.006Z,25.80
2022-09-22T03:27:50.677Z,25.80
2022-09-22T03:30:18.514Z,25.80
2022-09-22T03:32:46.681Z,25.80
2022-09-22T03:35:14.488Z,25.70
2022-09-22T03:37:43.585Z,25.70
2022-09-22T03:40:11.976Z,25.70
2022-09-22T03:42:39.716Z,25.70
2022-09-22T03:45:09.474Z,25.70
2022-09-22T03:47:37.188Z,25.70
2022-09-22T03:50:06.023Z,25.70
2022-09-22T03:52:33.707Z,25.70
2022-09-22T03:55:03.142Z,25.70
2022-09-22T03:57:30.961Z,25.70
2022-09-22T03:59:58.693Z,25.70
2022-09-22T04:02:26.647Z,25.70
2022-09-22T04:04:54.442Z,25.70
2022-09-22T04:07:22.237Z,25.70
2022-09-22T04:09:49.921Z,25.60
2022-09-22T04:12:18.915Z,25.60
2022-09-22T04:14:46.750Z,25.60
2022-09-22T04:17:14.481Z,25.60
2022-09-22T04:19:42.130Z,25.60
2022-09-22T04:22:09.812Z,25.60
2022-09-22T04:24:37.558Z,25.60
2022-09-22T04:27:19.538Z,25.60
2022-09-22T04:29:49.790Z,25.60
2022-09-22T04:32:18.122Z,25.60
2022-09-22T04:34:47.751Z,25.60
2022-09-22T04:37:15.467Z,25.60
2022-09-22T04:39:43.145Z,25.60
2022-09-22T04:42:10.847Z,25.50
2022-09-22T04:44:38.576Z,25.50
2022-09-22T04:47:08.040Z,25.50
2022-09-22T04:49:35.749Z,25.50
2022-09-22T04:52:04.251Z,25.50
2022-09-22T04:54:32.439Z,25.50
2022-09-22T04:57:00.391Z,25.50
2022-09-22T04:59:29.491Z,25.50
2022-09-22T05:01:57.226Z,25.50
2022-09-22T05:04:26.275Z,25.50
2022-09-22T05:06:53.980Z,25.50
2022-09-22T05:09:21.825Z,25.50
2022-09-22T05:11:49.877Z,25.50
2022-09-22T05:14:21.574Z,25.50
2022-09-22T05:16:52.333Z,25.50
2022-09-22T05:19:20.076Z,25.50
2022-09-22T05:21:49.057Z,25.50
2022-09-22T05:24:16.739Z,25.40
2022-09-22T05:26:44.476Z,25.40
2022-09-22T05:29:12.108Z,25.40
2022-09-22T05:31:39.914Z,25.40
2022-09-22T05:34:07.675Z,25.40
2022-09-22T05:36:35.364Z,25.40
2022-09-22T05:39:04.611Z,25.40
2022-09-22T05:41:32.476Z,25.40
2022-09-22T05:44:00.163Z,25.40
2022-09-22T05:46:27.910Z,25.40
2022-09-22T05:48:55.572Z,25.40
2022-09-22T05:51:23.391Z,25.40
2022-09-22T05:53:51.051Z,25.40
2022-09-22T05:56:20.024Z,25.40
2022-09-22T05:58:48.255Z,25.40
2022-09-22T06:01:16.151Z,25.30
2022-09-22T06:03:43.849Z,25.30
2022-09-22T06:06:11.527Z,25.30
2022-09-22T06:08:39.202Z,25.30
2022-09-22T06:11:07.050Z,25.30
2022-09-22T06:13:36.292Z,25.30
2022-09-22T06:16:04.965Z,25.30
2022-09-22T06:18:32.797Z,25.30
2022-09-22T06:21:00.518Z,25.30
2022-09-22T06:23:28.282Z,25.30
2022-09-22T06:25:59.422Z,25.30
2022-09-22T06:28:27.323Z,25.30
2022-09-22T06:31:00.510Z,25.30
2022-09-22T06:33:28.706Z,25.30
2022-09-22T06:35:58.070Z,25.30
2022-09-22T06:38:25.803Z,25.30
2022-09-22T06:40:53.570Z,25.30
2022-09-22T06:43:23.480Z,25.30
2022-09-22T06:45:52.334Z,25.30
2022-09-22T06:48:23.969Z,25.30
2022-09-22T06:50:54.592Z,25.30
2022-09-22T06:53:26.733Z,25.20
2022-09-22T06:55:55.260Z,25.30
2022-09-22T06:58:23.220Z,25.20
2022-09-22T07:00:51.052Z,25.20
2022-09-22T07:03:24.312Z,25.20
2022-09-22T07:05:57.451Z,25.30
2022-09-22T07:08:26.616Z,25.20
2022-09-22T07:10:56.766Z,25.20
2022-09-22T07:13:24.816Z,25.20
2022-09-22T07:15:52.596Z,25.20
2022-09-22T07:18:21.755Z,25.20
2022-09-22T07:20:50.028Z,25.20
2022-09-22T07:23:21.251Z,25.20
2022-09-22T07:25:57.134Z,25.20
2022-09-22T07:28:25.861Z,25.20
2022-09-22T07:30:53.546Z,25.20
2022-09-22T07:33:23.118Z,25.20
2022-09-22T07:36:01.961Z,25.20
2022-09-22T07:38:33.906Z,25.20
2022-09-22T07:41:02.232Z,25.20
2022-09-22T07:43:29.945Z,25.20
2022-09-22T07:45:58.149Z,25.20
2022-09-22T07:48:42.776Z,25.20
2022-09-22T07:51:16.675Z,25.20
2022-09-22T07:53:46.828Z,25.20
2022-09-22T07:56:17.337Z,25.20
2022-09-22T07:58:50.581Z,25.20
2022-09-22T08:01:19.684Z,25.30
2022-09-22T08:03:49.239Z,25.30
2022-09-22T08:06:19.980Z,25.30
2022-09-22T08:08:52.279Z,25.30
2022-09-22T08:11:22.836Z,25.30
2022-09-22T08:13:56.079Z,25.30
2022-09-22T08:16:28.227Z,25.30
2022-09-22T08:18:59.117Z,25.30
2022-09-22T08:21:30.098Z,25.40
2022-09-22T08:23:57.994Z,25.40
2022-09-22T08:26:26.002Z,25.40
2022-09-22T08:28:55.252Z,25.40
2022-09-22T08:31:24.540Z,25.40
2022-09-22T08:33:53.133Z,25.50
2022-09-22T08:36:23.961Z,25.50
2022-09-22T08:38:51.776Z,25.50
2022-09-22T08:41:30.579Z,25.50
2022-09-22T08:44:02.125Z,25.50
2022-09-22T08:46:33.335Z,25.60
2022-09-22T08:49:30.464Z,25.60
2022-09-22T08:52:07.039Z,25.60
2022-09-22T08:54:35.303Z,25.70
2022-09-22T08:57:30.980Z,25.70
2022-09-22T09:00:06.415Z,25.70
2022-09-22T09:02:55.528Z,25.70
2022-09-22T09:05:54.398Z,25.80
2022-09-22T09:09:13.693Z,25.80
2022-09-22T09:12:23.116Z,25.80
2022-09-22T09:15:16.737Z,25.90
2022-09-22T09:17:48.104Z,25.90
2022-09-22T09:20:21.666Z,25.90
2022-09-22T09:22:55.689Z,25.90
2022-09-22T09:25:36.747Z,25.90
2022-09-22T09:28:07.408Z,26.00
2022-09-22T09:30:45.301Z,26.00
2022-09-22T09:33:26.259Z,26.00
2022-09-22T09:35:54.018Z,26.00
2022-09-22T09:38:29.454Z,26.00
2022-09-22T09:41:10.564Z,26.10
2022-09-22T09:43:42.686Z,26.10
2022-09-22T09:46:26.716Z,26.10
2022-09-22T09:49:12.445Z,26.10
2022-09-22T09:51:44.086Z,26.20
2022-09-22T09:54:17.462Z,26.20
2022-09-22T09:57:11.762Z,26.20
2022-09-22T10:00:00.073Z,26.20
2022-09-22T10:02:31.431Z,26.20
2022-09-22T10:05:05.556Z,26.20
2022-09-22T10:07:44.478Z,26.30
2022-09-22T10:10:35.448Z,26.30
2022-09-22T10:13:41.101Z,26.30
2022-09-22T10:16:23.160Z,26.30
2022-09-22T10:19:05.625Z,26.40
2022-09-22T10:21:34.481Z,26.30
2022-09-22T10:24:02.980Z,26.40
2022-09-22T10:26:32.867Z,26.40
2022-09-22T10:29:18.166Z,26.40
2022-09-22T10:32:23.725Z,26.50
2022-09-22T10:34:57.115Z,26.50
2022-09-22T10:37:31.254Z,26.50
2022-09-22T10:40:02.845Z,26.50
2022-09-22T10:42:41.589Z,26.50
2022-09-22T10:45:15.275Z,26.60
2022-09-22T10:47:59.274Z,26.60
2022-09-22T10:50:57.675Z,26.60
2022-09-22T10:53:52.154Z,26.60
2022-09-22T10:56:33.926Z,26.70
2022-09-22T10:59:38.154Z,26.70
2022-09-22T11:02:55.072Z,26.70
2022-09-22T11:06:00.923Z,26.60
2022-09-22T11:08:58.195Z,26.70
2022-09-22T11:11:51.639Z,26.70
2022-09-22T11:14:42.452Z,26.80
2022-09-22T11:17:26.165Z,26.80
2022-09-22T11:20:30.068Z,26.80
2022-09-22T11:23:22.370Z,26.80
2022-09-22T11:26:07.665Z,26.80
2022-09-22T11:29:06.158Z,26.80
2022-09-22T11:31:47.960Z,26.80
2022-09-22T11:34:48.748Z,26.80
2022-09-22T11:37:43.340Z,26.80
2022-09-22T11:40:33.550Z,26.80
2022-09-22T11:43:27.999Z,26.90
2022-09-22T11:46:06.094Z,26.90
2022-09-22T11:48:58.046Z,26.90
2022-09-22T11:52:04.042Z,26.90
2022-09-22T11:55:02.339Z,26.90
2022-09-22T11:57:38.065Z,26.90
2022-09-22T12:00:15.349Z,26.90
2022-09-22T12:02:50.750Z,26.90
2022-09-22T12:05:26.689Z,26.90
2022-09-22T12:08:01.741Z,26.90
2022-09-22T12:10:36.598Z,26.90
2022-09-22T12:13:08.582Z,26.90
2022-09-22T12:15:47.542Z,26.90
2022-09-22T12:18:22.850Z,27.00
2022-09-22T12:21:00.836Z,27.00
2022-09-22T12:23:51.247Z,27.00
2022-09-22T12:26:31.173Z,27.00
2022-09-22T12:29:01.912Z,27.00
2022-09-22T12:31:36.095Z,27.00
2022-09-22T12:34:07.109Z,27.00
2022-09-22T12:36:38.776Z,27.00
2022-09-22T12:39:18.013Z,27.00
2022-09-22T12:41:52.328Z,27.00
2022-09-22T12:44:24.780Z,27.00
2022-09-22T12:46:57.196Z,27.00
2022-09-22T12:49:25.461Z,27.00
2022-09-22T12:51:53.854Z,27.00
2022-09-22T12:54:40.816Z,27.00
2022-09-22T12:57:28.721Z,27.00
2022-09-22T13:00:17.284Z,27.10
2022-09-22T13:02:45.944Z,27.10
2022-09-22T13:05:44.215Z,27.10
2022-09-22T13:08:23.293Z,27.10
2022-09-22T13:10:55.298Z,27.10
2022-09-22T13:13:38.890Z,27.10
2022-09-22T13:16:35.215Z,27.10
2022-09-22T13:19:05.150Z,27.10
2022-09-22T13:21:34.408Z,27.10
2022-09-22T13:24:05.072Z,27.10
2022-09-22T13:26:36.089Z,27.10
2022-09-22T13:29:11.316Z,27.10
2022-09-22T13:31:43.203Z,27.20
2022-09-22T13:34:29.097Z,27.10
2022-09-22T13:37:01.012Z,27.10
2022-09-22T13:39:34.918Z,27.10
2022-09-22T13:42:09.536Z,27.10
2022-09-22T13:44:42.996Z,27.10
2022-09-22T13:47:18.144Z,27.10
2022-09-22T13:49:51.256Z,27.10
2022-09-22T13:52:23.269Z,27.10
2022-09-22T13:54:56.538Z,27.10
2022-09-22T13:57:30.081Z,27.10
2022-09-22T14:00:01.004Z,27.10
2022-09-22T14:02:32.453Z,27.20
2022-09-22T14:05:05.704Z,27.20
2022-09-22T14:07:55.192Z,27.20
2022-09-22T14:10:27.941Z,27.20
2022-09-22T14:12:56.894Z,27.10
2022-09-22T14:15:43.459Z,27.10
2022-09-22T14:18:21.161Z,27.10
2022-09-22T14:20:49.606Z,27.10
2022-09-22T14:23:27.456Z,27.10
2022-09-22T14:25:56.828Z,27.10
2022-09-22T14:28:29.102Z,27.10
2022-09-22T14:30:58.421Z,27.10
2022-09-22T14:33:33.204Z,27.10
2022-09-22T14:36:05.109Z,27.10
2022-09-22T14:38:43.081Z,27.10
2022-09-22T14:41:26.392Z,27.10
2022-09-22T14:43:55.141Z,27.10
2022-09-22T14:46:33.613Z,27.10
2022-09-22T14:49:40.650Z,27.10
2022-09-22T14:52:24.439Z,27.10
2022-09-22T14:54:54.190Z,27.10
2022-09-22T14:57:22.264Z,27.10
2022-09-22T15:00:13.232Z,27.10
2022-09-22T15:02:47.005Z,27.10
2022-09-22T15:05:29.747Z,27.10
2022-09-22T15:07:59.205Z,27.10
2022-09-22T15:10:29.737Z,27.10
2022-09-22T15:13:21.621Z,27.10
2022-09-22T15:15:50.181Z,27.10
2022-09-22T15:18:19.410Z,27.10
2022-09-22T15:20:51.799Z,27.10
2022-09-22T15:23:25.894Z,27.10
2022-09-22T15:25:56.000Z,27.10
2022-09-22T15:28:26.965Z,27.10
2022-09-22T15:30:55.039Z,27.10
2022-09-22T15:33:22.946Z,27.20
2022-09-22T15:35:57.400Z,27.10
2022-09-22T15:38:28.554Z,27.10
2022-09-22T15:40:57.391Z,27.10
2022-09-22T15:43:30.782Z,27.10
2022-09-22T15:46:02.234Z,27.10
2022-09-22T15:48:33.833Z,27.10
2022-09-22T15:51:06.760Z,27.10
2022-09-22T15:53:36.042Z,27.10
2022-09-22T15:56:07.138Z,27.00
2022-09-22T15:58:37.832Z,27.00
2022-09-22T16:01:07.877Z,27.00
2022-09-22T16:03:41.286Z,27.00
2022-09-22T16:06:15.179Z,27.00
2022-09-22T16:08:46.098Z,27.00
2022-09-22T16:11:16.519Z,27.00
2022-09-22T16:13:44.527Z,27.00
2022-09-22T16:16:12.898Z,26.90
2022-09-22T16:18:41.933Z,26.90
2022-09-22T16:21:22.898Z,26.90
2022-09-22T16:23:51.175Z,26.90
2022-09-22T16:26:18.843Z,26.80
2022-09-22T16:28:46.555Z,26.80
2022-09-22T16:31:15.659Z,26.80
2022-09-22T16:33:43.910Z,26.80
2022-09-22T16:36:11.967Z,26.80
2022-09-22T16:38:40.999Z,26.80
2022-09-22T16:41:22.611Z,26.80
2022-09-22T16:43:50.392Z,26.80
2022-09-22T16:46:27.910Z,26.70
2022-09-22T16:48:57.289Z,26.70
2022-09-22T16:51:25.400Z,26.70
2022-09-22T16:53:54.441Z,26.70
2022-09-22T16:56:24.481Z,26.70
2022-09-22T16:58:52.863Z,26.70
2022-09-22T17:01:21.018Z,26.70
2022-09-22T17:03:52.181Z,26.70
2022-09-22T17:06:23.059Z,26.70
2022-09-22T17:08:53.513Z,26.70
2022-09-22T17:11:29.459Z,26.80
2022-09-22T17:14:01.345Z,26.80
2022-09-22T17:16:30.923Z,26.80
2022-09-22T17:19:02.373Z,26.70
2022-09-22T17:21:34.392Z,26.80
2022-09-22T17:24:05.727Z,26.80
2022-09-22T17:26:38.662Z,26.80
2022-09-22T17:29:07.423Z,26.80
2022-09-22T17:31:36.836Z,26.80
2022-09-22T17:34:04.819Z,26.80
2022-09-22T17:36:32.605Z,26.80
2022-09-22T17:39:01.976Z,26.80
2022-09-22T17:41:32.894Z,26.80
2022-09-22T17:44:03.328Z,26.80
2022-09-22T17:46:33.723Z,26.80
2022-09-22T17:49:19.629Z,26.90
2022-09-22T17:52:07.777Z,26.80
2022-09-22T17:54:55.787Z,26.80
2022-09-22T17:57:26.886Z,26.80
2022-09-22T17:59:57.938Z,26.80
2022-09-22T18:02:29.515Z,26.80
2022-09-22T18:04:57.315Z,26.90
2022-09-22T18:07:27.677Z,26.90
2022-09-22T18:09:55.887Z,26.90
2022-09-22T18:12:25.478Z,26.90
2022-09-22T18:15:02.292Z,26.90
2022-09-22T18:17:31.794Z,26.90
2022-09-22T18:20:00.830Z,26.90
2022-09-22T18:22:29.702Z,26.90
2022-09-22T18:24:57.468Z,26.90
2022-09-22T18:27:27.088Z,26.90
2022-09-22T18:29:58.626Z,26.90
2022-09-22T18:32:27.355Z,27.00
2022-09-22T18:34:55.843Z,27.00
2022-09-22T18:37:25.588Z,27.00
2022-09-22T18:39:53.478Z,27.00
2022-09-22T18:42:26.282Z,27.00
2022-09-22T18:44:54.423Z,27.00
2022-09-22T18:47:24.472Z,27.00
2022-09-22T18:49:52.346Z,27.00
2022-09-22T18:52:23.835Z,27.00
2022-09-22T18:54:54.368Z,27.00
2022-09-22T18:57:23.013Z,27.00
2022-09-22T18:59:51.118Z,27.10
2022-09-22T19:02:22.332Z,27.10
2022-09-22T19:04:52.195Z,27.10
2022-09-22T19:07:42.520Z,27.10
2022-09-22T19:10:12.956Z,27.10
2022-09-22T19:12:41.228Z,27.10
2022-09-22T19:15:15.061Z,27.10
2022-09-22T19:17:44.754Z,27.10
2022-09-22T19:20:17.470Z,27.10
2022-09-22T19:22:46.907Z,27.10
2022-09-22T19:25:14.982Z,27.10
2022-09-22T19:27:43.384Z,27.10
2022-09-22T19:30:12.887Z,27.10
2022-09-22T19:32:41.446Z,27.10
2022-09-22T19:35:10.208Z,27.20
2022-09-22T19:37:41.210Z,27.20
2022-09-22T19:40:13.029Z,27.20
2022-09-22T19:42:40.877Z,27.20
2022-09-22T19:45:09.876Z,27.20
2022-09-22T19:47:39.534Z,27.20
2022-09-22T19:50:09.413Z,27.20
2022-09-22T19:52:38.967Z,27.20
2022-09-22T19:55:09.139Z,27.20
2022-09-22T19:57:41.088Z,27.20
2022-09-22T20:00:12.412Z,27.20
2022-09-22T20:02:40.614Z,27.30
2022-09-22T20:05:20.853Z,27.20
2022-09-22T20:07:50.549Z,27.30
2022-09-22T20:10:21.336Z,27.30
2022-09-22T20:12:49.615Z,27.30
2022-09-22T20:15:17.994Z,27.30
2022-09-22T20:17:48.110Z,27.30
2022-09-22T20:20:17.805Z,27.30
2022-09-22T20:22:50.380Z,27.30
2022-09-22T20:25:24.837Z,27.30
2022-09-22T20:27:52.572Z,27.40
2022-09-22T20:30:21.060Z,27.40
2022-09-22T20:32:50.349Z,27.40
2022-09-22T20:35:21.813Z,27.40
2022-09-22T20:37:51.426Z,27.40
2022-09-22T20:40:22.990Z,27.40
2022-09-22T20:42:54.106Z,27.40
2022-09-22T20:45:24.447Z,27.40
2022-09-22T20:47:52.161Z,27.40
2022-09-22T20:50:21.289Z,27.40
2022-09-22T20:52:49.341Z,27.40
2022-09-22T20:55:18.627Z,27.40
2022-09-22T20:57:46.305Z,27.50
2022-09-22T21:00:15.631Z,27.40
2022-09-22T21:02:43.449Z,27.50
2022-09-22T21:05:11.290Z,27.50
2022-09-22T21:07:39.174Z,27.40
2022-09-22T21:10:24.717Z,27.50
2022-09-22T21:12:55.067Z,27.40
2022-09-22T21:15:22.994Z,27.40
2022-09-22T21:17:52.141Z,27.40
2022-09-22T21:20:20.037Z,27.40
2022-09-22T21:22:47.725Z,27.40
2022-09-22T21:25:15.975Z,27.40
2022-09-22T21:27:45.164Z,27.40
2022-09-22T21:30:15.010Z,27.40
2022-09-22T21:32:42.723Z,27.40
2022-09-22T21:35:10.627Z,27.40
2022-09-22T21:37:38.283Z,27.40
2022-09-22T21:40:09.008Z,27.40
2022-09-22T21:42:36.713Z,27.40
2022-09-22T21:45:05.092Z,27.40
2022-09-22T21:47:34.100Z,27.40
2022-09-22T21:50:01.749Z,27.40
2022-09-22T21:52:29.629Z,27.40
2022-09-22T21:54:57.307Z,27.40
2022-09-22T21:57:24.978Z,27.40
2022-09-22T21:59:56.130Z,27.40
2022-09-22T22:02:24.405Z,27.40
2022-09-22T22:04:55.655Z,27.40
2022-09-22T22:07:23.312Z,27.30
2022-09-22T22:09:50.975Z,27.30
2022-09-22T22:12:18.644Z,27.30
2022-09-22T22:14:47.131Z,27.30
2022-09-22T22:17:14.798Z,27.30
2022-09-22T22:19:42.487Z,27.30
2022-09-22T22:22:11.493Z,27.30
2022-09-22T22:24:42.368Z,27.30
2022-09-22T22:27:14.031Z,27.30
2022-09-22T22:29:41.814Z,27.20
2022-09-22T22:32:11.562Z,27.20
2022-09-22T22:34:39.403Z,27.20
2022-09-22T22:37:09.559Z,27.20
2022-09-22T22:39:38.969Z,27.20
2022-09-22T22:42:07.891Z,27.20
2022-09-22T22:44:35.921Z,27.20
2022-09-22T22:47:03.627Z,27.10
2022-09-22T22:49:31.347Z,27.10
2022-09-22T22:51:59.102Z,27.10
2022-09-22T22:54:26.805Z,27.10
2022-09-22T22:56:56.204Z,27.10
2022-09-22T22:59:23.931Z,27.10
2022-09-22T23:01:51.654Z,27.10
2022-09-22T23:04:19.362Z,27.00
2022-09-22T23:06:48.467Z,27.00
2022-09-22T23:09:18.210Z,27.00
2022-09-22T23:11:46.672Z,27.00
2022-09-22T23:14:17.087Z,27.00
2022-09-22T23:16:49.341Z,27.00
2022-09-22T23:19:19.466Z,27.00
2022-09-22T23:21:47.543Z,26.90
2022-09-22T23:24:18.767Z,26.90
2022-09-22T23:26:47.585Z,26.90
2022-09-22T23:29:16.614Z,26.90
2022-09-22T23:31:44.266Z,26.90
2022-09-22T23:34:11.937Z,26.90
2022-09-22T23:36:39.849Z,26.90
2022-09-22T23:39:07.934Z,26.80
2022-09-22T23:41:37.843Z,26.80
2022-09-22T23:44:07.149Z,26.80
2022-09-22T23:46:37.500Z,26.80
2022-09-22T23:49:05.767Z,26.80
2022-09-22T23:51:33.483Z,26.80
2022-09-22T23:54:01.217Z,26.80
2022-09-22T23:56:29.166Z,26.70
2022-09-22T23:58:57.310Z,26.70
